Time;durP1;ratioP1;P1;durP2;ratioP2;P2;SDS_P1;SDS_P2;PMS_P1;PMS_P2;Temp;Humidity;BMP_temperature;BMP_pressure;BME280_temperature;BME280_humidity;BME280_pressure;Samples;Min_cycle;Max_cycle;Signal;HPM_P1;HPM_P2
2022/10/19 00:01:43;;;;;;;24.42;14.38;;;;;;;14.41;100.00;99504.59;4994345;28;20038;-53
2022/10/19 00:04:28;;;;;;;25.77;15.15;;;;;;;14.23;100.00;99515.50;5006135;28;20038;-56
2022/10/19 00:07:13;;;;;;;26.70;14.63;;;;;;;14.11;100.00;99513.75;4990055;28;20043;-53
2022/10/19 00:09:57;;;;;;;25.95;14.45;;;;;;;14.29;100.00;99509.78;4988192;28;20042;-51
2022/10/19 00:12:42;;;;;;;30.08;15.57;;;;;;;14.07;100.00;99521.03;4994586;28;20074;-49
2022/10/19 00:15:27;;;;;;;29.92;16.08;;;;;;;13.88;100.00;99517.06;4995396;28;20050;-49
2022/10/19 00:18:11;;;;;;;24.85;14.50;;;;;;;13.84;100.00;99522.66;4989046;28;20062;-49
2022/10/19 00:21:03;;;;;;;26.33;15.00;;;;;;;13.95;100.00;99519.25;5007896;28;20126;-52
2022/10/19 00:23:48;;;;;;;29.70;15.82;;;;;;;14.10;100.00;99522.59;4988807;28;20039;-51
2022/10/19 00:26:33;;;;;;;25.55;15.02;;;;;;;14.25;100.00;99531.19;4980519;28;20030;-52
2022/10/19 00:29:18;;;;;;;29.40;17.05;;;;;;;13.96;100.00;99521.78;4989430;28;20046;-51
2022/10/19 00:32:02;;;;;;;28.98;16.63;;;;;;;14.15;100.00;99512.59;4994003;28;20497;-52
2022/10/19 00:34:47;;;;;;;26.40;15.23;;;;;;;14.39;100.00;99517.84;4991305;28;20146;-51
2022/10/19 00:37:32;;;;;;;30.33;16.80;;;;;;;14.26;100.00;99525.81;4991346;28;20117;-50
2022/10/19 00:40:16;;;;;;;31.23;16.67;;;;;;;14.08;100.00;99529.78;4986123;28;20042;-50
2022/10/19 00:43:01;;;;;;;30.92;17.33;;;;;;;13.71;100.00;99525.31;4988515;28;20039;-51
2022/10/19 00:45:46;;;;;;;31.30;16.73;;;;;;;14.19;100.00;99529.84;4994155;28;20038;-53
2022/10/19 00:48:32;;;;;;;31.35;17.02;;;;;;;14.00;100.00;99525.06;4975774;28;20453;-54
2022/10/19 00:51:17;;;;;;;30.83;17.63;;;;;;;14.01;100.00;99521.47;4986472;28;20066;-54
2022/10/19 00:54:05;;;;;;;35.45;18.65;;;;;;;13.80;100.00;99524.66;4982429;28;20061;-51
2022/10/19 00:56:53;;;;;;;31.10;18.15;;;;;;;13.69;100.00;99525.44;4989622;28;20042;-52
2022/10/19 00:59:39;;;;;;;32.35;18.98;;;;;;;13.67;100.00;99527.31;4977265;28;20061;-51
2022/10/19 01:02:23;;;;;;;33.08;18.15;;;;;;;13.77;100.00;99527.50;4992962;28;20108;-50
2022/10/19 01:05:08;;;;;;;35.28;20.00;;;;;;;13.75;100.00;99530.25;4991038;28;20498;-52
2022/10/19 01:07:54;;;;;;;34.67;19.20;;;;;;;13.59;100.00;99521.72;4987775;28;20133;-52
2022/10/19 01:11:21;;;;;;;34.80;20.20;;;;;;;13.59;100.00;99519.09;4985393;28;20038;-50
2022/10/19 01:14:29;;;;;;;33.80;19.67;;;;;;;13.59;100.00;99517.31;4989409;28;20073;-51
2022/10/19 01:17:29;;;;;;;36.10;20.13;;;;;;;13.69;100.00;99520.16;4906319;29;20044;-50
2022/10/19 01:20:39;;;;;;;34.60;19.92;;;;;;;13.82;100.00;99521.94;4920943;29;20047;-50
2022/10/19 01:24:20;;;;;;;33.15;20.75;;;;;;;13.55;100.00;99518.47;4922844;29;20536;-51
2022/10/19 01:27:17;;;;;;;32.28;19.88;;;;;;;13.42;100.00;99519.28;4872815;29;20051;-54
2022/10/19 01:30:05;;;;;;;37.38;21.17;;;;;;;13.41;100.00;99511.50;4867649;29;20048;-50
2022/10/19 01:32:59;;;;;;;31.25;18.70;;;;;;;13.44;100.00;99524.44;4879439;29;20073;-53
2022/10/19 01:35:56;;;;;;;32.60;19.17;;;;;;;13.35;100.00;99506.66;4871935;29;20045;-47
2022/10/19 01:39:06;;;;;;;32.30;19.40;;;;;;;13.38;100.00;99509.09;4883568;29;20480;-53
2022/10/19 01:42:00;;;;;;;32.67;19.05;;;;;;;13.28;100.00;99504.47;4872592;29;20072;-48
2022/10/19 01:44:53;;;;;;;33.67;19.75;;;;;;;13.28;100.00;99517.63;4875142;29;20164;-50
2022/10/19 01:47:45;;;;;;;34.53;20.20;;;;;;;13.27;100.00;99500.13;4877006;29;20045;-51
2022/10/19 01:50:37;;;;;;;30.92;18.70;;;;;;;13.17;100.00;99496.44;4866975;29;20051;-50
2022/10/19 01:53:24;;;;;;;31.33;16.75;;;;;;;13.21;100.00;99507.59;4885734;29;20480;-48
2022/10/19 01:56:11;;;;;;;29.15;17.63;;;;;;;13.18;100.00;99508.66;4944451;29;20061;-48
2022/10/19 01:58:58;;;;;;;28.80;16.70;;;;;;;13.00;100.00;99505.47;4973013;28;20035;-49
2022/10/19 02:01:46;;;;;;;28.77;16.42;;;;;;;12.92;100.00;99509.47;4989958;28;20504;-59
2022/10/19 02:04:32;;;;;;;26.25;16.02;;;;;;;12.88;100.00;99507.97;4984530;28;20470;-55
2022/10/19 02:07:21;;;;;;;30.35;16.02;;;;;;;13.06;100.00;99502.41;4993835;28;20121;-50
2022/10/19 02:10:06;;;;;;;25.08;15.77;;;;;;;13.13;100.00;99501.06;4991591;28;20050;-49
2022/10/19 02:12:54;;;;;;;21.73;14.10;;;;;;;13.05;100.00;99501.59;4989224;28;20396;-54
2022/10/19 02:15:42;;;;;;;22.27;13.70;;;;;;;12.92;100.00;99514.72;4986487;28;20050;-52
2022/10/19 02:18:34;;;;;;;20.73;12.98;;;;;;;12.77;100.00;99516.56;4992446;28;20053;-48
2022/10/19 02:21:18;;;;;;;;;;;;;;;12.73;100.00;99511.63;4991945;28;20043;-49
2022/10/19 02:24:03;;;;;;;20.92;12.52;;;;;;;12.60;100.00;99517.66;4985287;28;19999;-56
2022/10/19 02:26:49;;;;;;;20.02;13.02;;;;;;;12.52;100.00;99515.53;5004032;28;20529;-52
2022/10/19 02:29:35;;;;;;;17.98;11.75;;;;;;;12.54;100.00;99515.44;4989975;28;20137;-61
2022/10/19 02:32:20;;;;;;;17.23;12.25;;;;;;;12.50;100.00;99512.16;4988959;28;20117;-53
2022/10/19 02:35:05;;;;;;;20.23;12.85;;;;;;;12.39;100.00;99523.38;4988823;28;20118;-52
2022/10/19 02:37:50;;;;;;;18.55;11.18;;;;;;;12.48;100.00;99528.97;4992126;28;20030;-54
2022/10/19 02:40:39;;;;;;;16.38;9.90;;;;;;;12.51;100.00;99534.03;4987172;28;20030;-59
2022/10/19 02:43:27;;;;;;;13.52;8.95;;;;;;;12.40;100.00;99540.00;4989811;28;20045;-59
2022/10/19 02:46:24;;;;;;;14.25;9.38;;;;;;;12.40;100.00;99535.56;4977364;28;20042;-55
2022/10/19 02:49:10;;;;;;;14.38;8.90;;;;;;;12.41;100.00;99546.94;5005819;28;20394;-53
2022/10/19 02:52:04;;;;;;;14.63;7.72;;;;;;;12.54;100.00;99537.31;4994316;28;20062;-55
2022/10/19 02:54:48;;;;;;;14.48;8.75;;;;;;;12.51;100.00;99540.16;4991921;28;20045;-47
2022/10/19 02:57:33;;;;;;;15.57;9.70;;;;;;;12.43;100.00;99543.28;4991701;28;20070;-50
2022/10/19 03:00:18;;;;;;;15.20;9.00;;;;;;;12.28;100.00;99536.34;4992256;28;20041;-53
2022/10/19 03:03:02;;;;;;;14.13;8.98;;;;;;;12.47;100.00;99540.44;4995010;28;20128;-54
2022/10/19 03:05:47;;;;;;;13.43;8.73;;;;;;;12.37;100.00;99540.19;4992409;28;20117;-54
2022/10/19 03:08:31;;;;;;;13.85;7.63;;;;;;;12.56;100.00;99538.06;4992982;28;20049;-53
2022/10/19 03:11:16;;;;;;;9.52;6.53;;;;;;;13.15;100.00;99545.69;4994002;28;20109;-53
2022/10/19 03:14:01;;;;;;;11.80;7.35;;;;;;;12.60;100.00;99535.25;4989383;28;20150;-54
2022/10/19 03:16:45;;;;;;;11.70;7.15;;;;;;;12.72;100.00;99531.81;4988072;28;20061;-59
2022/10/19 03:19:30;;;;;;;11.05;6.60;;;;;;;12.63;100.00;99537.66;4995719;28;20386;-52
2022/10/19 03:22:14;;;;;;;9.25;6.05;;;;;;;12.43;100.00;99551.16;4994796;28;20038;-51
2022/10/19 03:24:59;;;;;;;10.20;6.40;;;;;;;12.49;100.00;99541.16;4980704;28;20062;-53
2022/10/19 03:27:44;;;;;;;8.70;5.22;;;;;;;12.53;100.00;99548.75;4992671;28;20550;-53
2022/10/19 03:30:28;;;;;;;11.27;6.93;;;;;;;12.64;100.00;99555.13;4989661;28;20169;-53
2022/10/19 03:33:13;;;;;;;11.90;6.35;;;;;;;12.55;100.00;99552.13;4976028;28;20517;-53
2022/10/19 03:36:29;;;;;;;12.18;6.00;;;;;;;13.02;100.00;99564.06;5001109;28;20140;-52
2022/10/19 03:39:16;;;;;;;8.80;5.85;;;;;;;13.28;100.00;99572.00;4915898;29;20048;-49
2022/10/19 03:42:01;;;;;;;10.88;6.47;;;;;;;12.91;100.00;99580.56;4929477;29;20148;-51
2022/10/19 03:44:45;;;;;;;12.25;7.53;;;;;;;12.99;100.00;99570.38;4930969;29;20043;-60
2022/10/19 03:47:30;;;;;;;12.27;7.30;;;;;;;13.91;100.00;99569.53;4927959;29;20659;-52
2022/10/19 03:50:15;;;;;;;12.27;6.88;;;;;;;14.09;100.00;99563.91;4928919;29;20496;-53
2022/10/19 03:53:00;;;;;;;12.15;6.72;;;;;;;13.65;100.00;99564.28;4928995;29;20048;-53
2022/10/19 03:55:44;;;;;;;10.43;6.95;;;;;;;13.59;100.00;99575.25;4914696;29;20091;-53
2022/10/19 03:58:31;;;;;;;13.68;7.82;;;;;;;13.98;100.00;99577.00;4932628;29;20483;-49
2022/10/19 04:01:40;;;;;;;14.30;7.55;;;;;;;14.40;100.00;99589.88;4925562;29;20051;-53
2022/10/19 04:04:24;;;;;;;12.50;7.03;;;;;;;14.98;100.00;99583.13;4928346;29;20045;-51
2022/10/19 04:07:09;;;;;;;11.88;7.70;;;;;;;14.78;100.00;99585.41;4927309;29;20052;-58
2022/10/19 04:09:54;;;;;;;13.77;9.32;;;;;;;13.96;100.00;99586.78;4914046;29;20630;-53
2022/10/19 04:12:40;;;;;;;15.15;9.45;;;;;;;13.47;100.00;99582.13;4930615;29;20064;-50
2022/10/19 04:15:24;;;;;;;14.00;8.95;;;;;;;13.33;100.00;99583.09;4962362;28;20486;-50
2022/10/19 04:18:09;;;;;;;16.40;8.57;;;;;;;13.62;100.00;99579.44;5007756;28;20037;-49
2022/10/19 04:21:04;;;;;;;14.25;8.68;;;;;;;14.33;100.00;99589.47;4990850;28;20177;-53
2022/10/19 04:23:53;;;;;;;13.02;8.05;;;;;;;13.27;100.00;99584.31;4989567;28;20053;-48
2022/10/19 04:26:46;;;;;;;14.70;8.45;;;;;;;12.85;100.00;99583.56;4978426;28;20042;-50
2022/10/19 04:29:31;;;;;;;10.57;7.65;;;;;;;13.07;100.00;99583.03;4995265;28;20097;-49
2022/10/19 04:32:15;;;;;;;11.82;6.80;;;;;;;13.10;100.00;99588.09;4980652;28;20034;-49
2022/10/19 04:35:00;;;;;;;12.05;7.18;;;;;;;13.25;100.00;99577.50;4993236;28;20062;-57
2022/10/19 04:37:44;;;;;;;10.82;6.65;;;;;;;13.71;100.00;99581.44;4989059;28;20069;-52
2022/10/19 04:40:29;;;;;;;12.40;7.32;;;;;;;13.66;100.00;99580.94;4988900;28;20042;-51
2022/10/19 04:43:20;;;;;;;9.18;6.70;;;;;;;13.25;100.00;99578.31;4991192;28;20169;-51
2022/10/19 04:46:09;;;;;;;10.52;7.10;;;;;;;12.43;100.00;99577.44;4990212;28;20113;-51
2022/10/19 04:48:56;;;;;;;13.27;7.40;;;;;;;12.35;100.00;99577.06;4988472;28;20034;-52
2022/10/19 04:51:40;;;;;;;11.05;7.40;;;;;;;12.47;100.00;99578.06;4991745;28;20116;-48
2022/10/19 04:54:25;;;;;;;9.80;6.25;;;;;;;13.04;100.00;99575.34;4993966;28;20046;-51
2022/10/19 04:57:28;;;;;;;11.85;7.13;;;;;;;13.25;100.00;99566.97;4991028;28;20470;-51
2022/10/19 05:00:13;;;;;;;12.27;6.65;;;;;;;13.28;100.00;99567.59;4991669;28;20049;-51
2022/10/19 05:02:58;;;;;;;9.98;6.35;;;;;;;13.72;100.00;99563.84;4989816;28;20041;-51
2022/10/19 05:05:43;;;;;;;11.68;6.28;;;;;;;14.47;100.00;99572.69;4985750;28;20066;-54
2022/10/19 05:08:27;;;;;;;9.52;5.90;;;;;;;13.58;100.00;99562.19;4991231;28;20117;-53
2022/10/19 05:11:13;;;;;;;10.02;5.82;;;;;;;13.54;100.00;99556.28;4992414;28;20120;-58
2022/10/19 05:13:58;;;;;;;10.18;6.72;;;;;;;13.84;100.00;99564.81;4993394;28;20446;-53
2022/10/19 05:16:42;;;;;;;12.95;6.50;;;;;;;14.00;100.00;99562.75;4992804;28;20089;-51
2022/10/19 05:19:27;;;;;;;9.70;6.30;;;;;;;13.96;98.06;99568.34;4987077;28;20031;-53
2022/10/19 05:22:12;;;;;;;8.77;5.68;;;;;;;13.57;100.00;99565.75;4989767;28;20393;-48
2022/10/19 05:24:56;;;;;;;10.52;6.32;;;;;;;13.93;100.00;99574.69;4987439;28;20034;-49
2022/10/19 05:27:41;;;;;;;10.43;4.97;;;;;;;15.16;100.00;99565.09;4988015;28;20076;-53
2022/10/19 05:30:25;;;;;;;12.23;5.28;;;;;;;14.57;97.88;99580.75;4993290;28;20118;-52
2022/10/19 05:33:10;;;;;;;9.15;5.07;;;;;;;14.29;100.00;99586.22;4996118;28;20038;-51
2022/10/19 05:35:54;;;;;;;10.85;5.72;;;;;;;14.33;96.13;99588.63;5000705;28;20034;-52
2022/10/19 05:38:40;;;;;;;8.77;5.47;;;;;;;13.97;96.48;99599.84;4991580;28;20077;-55
2022/10/19 05:41:25;;;;;;;6.95;5.15;;;;;;;14.71;95.80;99589.44;4979871;28;20092;-52
2022/10/19 05:44:21;;;;;;;9.75;5.95;;;;;;;15.29;94.56;99580.84;4987830;28;20096;-56
2022/10/19 05:47:06;;;;;;;9.98;5.20;;;;;;;15.64;86.32;99581.72;4983079;28;20113;-52
2022/10/19 05:49:51;;;;;;;7.25;4.80;;;;;;;14.03;93.28;99595.97;4991724;28;20120;-52
2022/10/19 05:52:35;;;;;;;7.32;3.50;;;;;;;14.64;96.57;99595.16;4987828;28;20030;-51
2022/10/19 05:55:19;;;;;;;8.85;4.82;;;;;;;14.82;94.86;99597.44;4986853;28;20053;-55
2022/10/19 05:58:04;;;;;;;9.15;4.72;;;;;;;15.10;91.95;99587.50;5004982;28;20073;-52
2022/10/19 06:00:57;;;;;;;6.72;4.50;;;;;;;15.30;91.85;99594.88;4990910;28;20129;-53
2022/10/19 06:03:42;;;;;;;6.63;4.32;;;;;;;15.27;89.42;99593.31;4988527;28;20528;-51
2022/10/19 06:06:27;;;;;;;5.50;3.53;;;;;;;15.57;92.70;99593.75;4990814;28;20065;-53
2022/10/19 06:09:12;;;;;;;7.20;4.97;;;;;;;14.69;89.79;99607.19;4994293;28;20545;-50
2022/10/19 06:11:57;;;;;;;8.27;5.30;;;;;;;14.62;89.83;99602.34;4976505;28;20549;-51
2022/10/19 06:14:41;;;;;;;8.80;5.43;;;;;;;14.57;92.39;99609.75;4996550;28;20470;-51
2022/10/19 06:17:28;;;;;;;9.10;5.45;;;;;;;14.74;89.98;99618.22;4990095;28;20042;-50
2022/10/19 06:20:12;;;;;;;7.05;4.45;;;;;;;14.49;93.14;99625.28;4999732;28;20073;-55
2022/10/19 06:22:57;;;;;;;7.20;4.20;;;;;;;14.83;93.84;99625.53;4997849;28;20062;-50
2022/10/19 06:25:41;;;;;;;7.65;5.00;;;;;;;14.47;90.57;99627.19;4990430;28;20042;-51
2022/10/19 06:28:27;;;;;;;7.93;5.18;;;;;;;14.01;93.45;99630.31;4997465;28;20061;-50
2022/10/19 06:31:13;;;;;;;9.75;6.45;;;;;;;13.46;96.52;99624.34;4994735;28;20159;-53
2022/10/19 06:33:58;;;;;;;10.32;5.70;;;;;;;13.82;99.43;99628.13;5003834;28;20042;-60
2022/10/19 06:36:42;;;;;;;10.90;6.45;;;;;;;14.26;95.89;99633.03;4992394;28;20041;-53
2022/10/19 06:39:27;;;;;;;10.98;6.13;;;;;;;15.12;91.48;99641.00;5007766;28;20113;-54
2022/10/19 06:42:12;;;;;;;8.40;5.40;;;;;;;14.65;94.46;99641.69;4996130;28;20058;-56
2022/10/19 06:44:58;;;;;;;10.85;6.47;;;;;;;14.69;92.51;99641.47;4995985;28;20058;-51
2022/10/19 06:47:42;;;;;;;9.90;5.60;;;;;;;15.11;88.06;99630.56;4996286;28;20454;-51
2022/10/19 06:50:27;;;;;;;10.93;7.03;;;;;;;14.66;88.03;99635.47;4994406;28;20403;-52
2022/10/19 06:53:12;;;;;;;11.07;6.57;;;;;;;13.81;95.94;99618.50;4993647;28;20359;-49
2022/10/19 06:55:58;;;;;;;9.13;5.57;;;;;;;14.39;96.36;99617.19;4996294;28;20454;-51
2022/10/19 06:58:42;;;;;;;8.98;5.47;;;;;;;15.37;86.01;99623.31;4993622;28;20065;-48
2022/10/19 07:01:27;;;;;;;13.95;6.65;;;;;;;15.70;83.09;99620.06;4992918;28;20041;-49
2022/10/19 07:04:12;;;;;;;12.48;7.38;;;;;;;16.24;81.34;99621.19;4995840;28;20505;-57
2022/10/19 07:06:56;;;;;;;9.23;5.65;;;;;;;15.69;82.32;99619.19;4989832;28;20073;-52
2022/10/19 07:09:41;;;;;;;10.65;5.90;;;;;;;15.68;83.27;99620.16;4993383;28;20034;-50
2022/10/19 07:12:26;;;;;;;9.70;5.60;;;;;;;16.11;81.13;99625.72;4981716;28;20120;-50
2022/10/19 07:15:10;;;;;;;8.32;5.05;;;;;;;16.30;80.61;99632.22;5004541;28;20077;-55
2022/10/19 07:17:55;;;;;;;9.70;5.35;;;;;;;17.22;76.80;99638.16;4997114;28;20395;-52
2022/10/19 07:20:40;;;;;;;10.13;5.97;;;;;;;17.38;73.90;99629.78;4992294;28;20034;-49
2022/10/19 07:23:27;;;;;;;8.32;4.68;;;;;;;18.58;70.64;99630.22;4990568;28;20051;-52
2022/10/19 07:26:13;;;;;;;8.18;4.63;;;;;;;18.17;70.66;99635.53;4998976;28;20099;-52
2022/10/19 07:28:58;;;;;;;9.15;4.95;;;;;;;17.91;71.25;99637.75;4989846;28;20442;-51
2022/10/19 07:31:42;;;;;;;8.73;4.85;;;;;;;18.71;69.00;99635.28;4993974;28;20034;-47
2022/10/19 07:34:27;;;;;;;9.00;5.55;;;;;;;19.16;65.74;99641.06;4987087;28;20052;-50
2022/10/19 07:37:11;;;;;;;9.13;4.90;;;;;;;19.24;66.29;99634.22;4996656;28;20054;-49
2022/10/19 07:39:56;;;;;;;10.13;5.38;;;;;;;19.20;65.08;99639.81;4985248;28;20542;-51
2022/10/19 07:42:41;;;;;;;8.98;5.10;;;;;;;17.88;70.32;99635.38;4992733;28;20038;-50
2022/10/19 07:45:25;;;;;;;8.93;4.90;;;;;;;18.03;69.61;99636.72;4994478;28;20133;-46
2022/10/19 07:48:10;;;;;;;8.57;5.28;;;;;;;19.34;66.00;99637.69;5005477;28;20038;-51
2022/10/19 07:50:55;;;;;;;28.60;5.63;;;;;;;19.42;65.91;99637.00;4995337;28;20157;-45
2022/10/19 07:53:40;;;;;;;8.15;5.15;;;;;;;19.24;63.65;99640.38;4990473;28;20046;-51
2022/10/19 07:56:26;;;;;;;7.75;4.93;;;;;;;19.77;63.28;99624.06;4996871;28;20040;-45
2022/10/19 07:59:13;;;;;;;8.07;4.93;;;;;;;19.33;64.94;99625.41;4989214;28;20389;-51
2022/10/19 08:02:01;;;;;;;9.75;5.10;;;;;;;19.85;63.60;99620.66;4987367;28;20509;-49
2022/10/19 08:04:45;;;;;;;7.78;4.53;;;;;;;20.03;64.27;99629.59;5007925;28;20035;-48
2022/10/19 08:07:32;;;;;;;9.65;4.82;;;;;;;19.52;63.78;99632.50;4991712;28;20371;-49
2022/10/19 08:10:17;;;;;;;7.65;4.95;;;;;;;19.72;63.81;99628.97;4995632;28;20100;-50
2022/10/19 08:13:02;;;;;;;9.30;4.97;;;;;;;20.36;62.75;99623.84;4993338;28;20508;-48
2022/10/19 08:15:46;;;;;;;7.25;4.57;;;;;;;20.16;61.87;99615.97;4979254;28;20055;-50
2022/10/19 08:18:31;;;;;;;7.80;4.60;;;;;;;19.92;62.68;99617.31;4973423;28;20126;-47
2022/10/19 08:21:16;;;;;;;9.73;5.45;;;;;;;20.58;60.82;99618.28;4971983;28;20031;-47
2022/10/19 08:24:01;;;;;;;7.10;4.57;;;;;;;20.33;59.95;99615.34;4978911;28;20070;-48
2022/10/19 08:26:46;;;;;;;9.02;4.97;;;;;;;21.21;59.36;99616.56;4970249;28;20058;-57
2022/10/19 08:29:30;;;;;;;9.40;4.68;;;;;;;21.24;57.94;99616.25;4974398;28;20455;-51
2022/10/19 08:32:15;;;;;;;8.52;4.50;;;;;;;20.95;59.59;99612.03;4972391;28;20491;-47
2022/10/19 08:34:59;;;;;;;13.85;4.90;;;;;;;20.34;60.24;99609.88;4969711;28;20053;-50
2022/10/19 08:37:44;;;;;;;8.80;5.30;;;;;;;20.12;61.02;99606.63;4980607;28;20106;-53
2022/10/19 08:40:30;;;;;;;8.68;3.97;;;;;;;20.18;61.05;99622.00;4990391;28;20463;-53
2022/10/19 08:43:35;;;;;;;7.22;4.18;;;;;;;19.54;62.63;99627.03;4979488;28;20034;-53
2022/10/19 08:46:38;;;;;;;8.07;4.75;;;;;;;17.31;70.37;99621.53;4983854;28;20473;-53
2022/10/19 08:49:25;;;;;;;9.90;4.10;;;;;;;17.74;71.51;99626.78;4973319;28;20072;-50
2022/10/19 08:52:34;;;;;;;9.27;5.05;;;;;;;19.68;63.86;99625.78;4984511;28;20129;-50
2022/10/19 08:55:28;;;;;;;8.68;4.95;;;;;;;19.27;64.71;99636.59;4970805;28;20593;-49
2022/10/19 08:58:39;;;;;;;8.70;4.88;;;;;;;19.31;65.02;99630.84;4975687;28;20073;-53
2022/10/19 09:01:32;;;;;;;7.68;4.55;;;;;;;19.36;64.38;99625.13;4973559;28;20073;-53
2022/10/19 09:04:46;;;;;;;8.30;4.80;;;;;;;18.65;67.05;99635.84;4967967;28;20065;-49
2022/10/19 09:07:43;;;;;;;10.43;5.03;;;;;;;18.09;68.56;99630.03;4981720;28;20085;-61
2022/10/19 09:10:36;;;;;;;10.60;4.82;;;;;;;17.83;70.30;99633.13;4976716;28;20045;-50
2022/10/19 09:13:20;;;;;;;7.97;4.90;;;;;;;19.11;65.57;99635.31;4976323;28;20026;-52
2022/10/19 09:16:09;;;;;;;7.18;4.38;;;;;;;18.96;64.36;99627.75;4984312;28;20122;-52
2022/10/19 09:18:53;;;;;;;7.57;4.30;;;;;;;18.86;66.21;99637.53;4971522;28;20105;-53
2022/10/19 09:21:47;;;;;;;8.70;4.32;;;;;;;18.45;66.93;99634.94;4984610;28;20037;-50
2022/10/19 09:24:42;;;;;;;7.22;3.90;;;;;;;19.74;65.09;99627.00;4971418;28;20038;-49
2022/10/19 09:27:39;;;;;;;7.15;4.00;;;;;;;19.28;62.69;99631.16;4970607;28;20109;-50
2022/10/19 09:30:25;;;;;;;6.63;3.50;;;;;;;20.19;60.93;99633.44;4975626;28;20038;-51
2022/10/19 09:33:25;;;;;;;7.93;3.63;;;;;;;20.43;60.22;99629.44;4974941;28;20220;-50
2022/10/19 09:36:10;;;;;;;5.53;2.90;;;;;;;21.01;56.19;99630.03;4974232;28;20044;-53
2022/10/19 09:38:55;;;;;;;6.63;3.33;;;;;;;20.03;58.14;99634.91;4973792;28;20045;-53
2022/10/19 09:42:22;;;;;;;4.65;3.00;;;;;;;20.31;59.04;99636.75;4973942;28;20050;-53
2022/10/19 09:45:25;;;;;;;4.55;2.88;;;;;;;20.36;56.94;99628.34;4970230;28;20471;-52
2022/10/19 09:48:27;;;;;;;5.40;3.03;;;;;;;19.15;62.05;99641.19;4981795;28;20054;-49
2022/10/19 09:51:14;;;;;;;4.47;3.15;;;;;;;19.08;60.80;99643.53;4995977;28;20122;-48
2022/10/19 09:53:58;;;;;;;7.95;3.10;;;;;;;19.30;60.28;99638.97;4974075;28;20034;-57
2022/10/19 09:56:53;;;;;;;6.78;3.53;;;;;;;19.47;58.17;99637.41;4992637;28;20137;-49
2022/10/19 09:59:37;;;;;;;7.80;2.97;;;;;;;18.37;62.54;99640.91;4977084;28;20046;-51
2022/10/19 10:02:30;;;;;;;5.30;3.15;;;;;;;18.87;60.95;99633.91;4972590;28;20038;-53
2022/10/19 10:05:15;;;;;;;4.65;3.38;;;;;;;17.78;64.82;99622.91;4977542;28;20038;-59
2022/10/19 10:08:01;;;;;;;5.32;3.10;;;;;;;18.65;62.19;99632.34;4973942;28;21031;-50
2022/10/19 10:10:52;;;;;;;5.85;3.25;;;;;;;19.56;61.77;99633.06;4982401;28;20050;-51
2022/10/19 10:13:41;;;;;;;9.35;3.50;;;;;;;19.79;56.94;99609.66;4971755;28;20125;-53
2022/10/19 10:16:29;;;;;;;6.68;3.50;;;;;;;18.83;59.59;99622.72;4979049;28;20450;-52
2022/10/19 10:19:15;;;;;;;7.40;3.55;;;;;;;19.80;57.38;99615.78;5005971;28;20062;-52
2022/10/19 10:22:02;;;;;;;5.15;2.95;;;;;;;20.76;54.52;99621.78;5002821;28;20039;-54
2022/10/19 10:24:53;;;;;;;5.57;2.78;;;;;;;21.54;52.18;99616.78;4977193;28;20449;-55
2022/10/19 10:27:39;;;;;;;4.80;2.90;;;;;;;21.90;50.32;99607.06;4997733;28;20035;-55
2022/10/19 10:30:25;;;;;;;5.55;3.33;;;;;;;20.73;52.07;99607.97;4968755;28;20039;-56
2022/10/19 10:33:25;;;;;;;4.53;2.72;;;;;;;18.80;57.94;99619.50;4977688;28;20454;-61
2022/10/19 10:36:10;;;;;;;6.80;3.20;;;;;;;18.78;58.27;99622.31;4975087;28;20117;-53
2022/10/19 10:39:04;;;;;;;5.03;3.35;;;;;;;18.41;59.75;99620.28;4970501;28;20045;-53
2022/10/19 10:41:48;;;;;;;5.35;3.63;;;;;;;18.13;61.28;99601.47;4971562;28;20439;-50
2022/10/19 10:44:35;;;;;;;7.05;3.63;;;;;;;18.18;60.61;99599.28;4975266;28;20034;-50
2022/10/19 10:47:20;;;;;;;6.80;3.42;;;;;;;18.23;62.07;99602.34;4976311;28;20129;-52
2022/10/19 10:50:06;;;;;;;9.00;3.80;;;;;;;18.26;60.89;99602.09;4971995;28;20042;-50
2022/10/19 10:53:03;;;;;;;6.55;3.72;;;;;;;18.78;58.70;99592.28;4978760;28;20047;-48
2022/10/19 10:55:55;;;;;;;7.30;4.05;;;;;;;18.61;59.32;99585.81;4975330;28;20062;-51
2022/10/19 10:58:46;;;;;;;7.63;3.08;;;;;;;19.72;57.49;99581.97;4999981;28;20105;-54
2022/10/19 11:01:38;;;;;;;5.43;3.20;;;;;;;20.53;55.57;99579.63;4972173;28;20042;-51
2022/10/19 11:04:27;;;;;;;5.90;3.45;;;;;;;20.21;55.77;99569.47;4969896;28;20090;-54
2022/10/19 11:07:18;;;;;;;6.60;3.53;;;;;;;20.21;53.62;99572.97;4974572;28;20039;-50
2022/10/19 11:10:19;;;;;;;5.72;3.17;;;;;;;19.54;56.51;99564.13;4970277;28;20043;-50
2022/10/19 11:13:07;;;;;;;5.28;4.00;;;;;;;19.77;53.42;99566.44;4985315;28;20053;-47
2022/10/19 11:15:58;;;;;;;4.95;2.90;;;;;;;20.16;52.35;99567.25;4984790;28;20505;-48
2022/10/19 11:18:47;;;;;;;4.18;3.05;;;;;;;21.20;48.96;99558.13;4978018;28;20070;-51
2022/10/19 11:21:54;;;;;;;7.10;2.78;;;;;;;21.97;47.25;99551.22;4974698;28;20475;-50
2022/10/19 11:24:42;;;;;;;10.13;3.08;;;;;;;22.24;47.30;99555.50;4982959;28;20043;-51
2022/10/19 11:27:44;;;;;;;4.85;3.00;;;;;;;20.60;50.04;99549.75;4974803;28;20122;-47
2022/10/19 11:30:34;;;;;;;5.07;2.85;;;;;;;20.86;49.38;99551.69;4972434;28;20034;-55
2022/10/19 11:33:44;;;;;;;4.35;3.00;;;;;;;21.28;48.84;99542.19;4970339;28;20450;-51
2022/10/19 11:36:29;;;;;;;5.95;3.20;;;;;;;22.56;45.31;99545.06;4973741;28;20038;-52
2022/10/19 11:39:27;;;;;;;4.57;2.60;;;;;;;21.85;46.16;99532.88;4974540;28;20126;-46
2022/10/19 11:42:35;;;;;;;6.75;3.40;;;;;;;20.97;48.36;99534.66;4971355;28;20073;-47
2022/10/19 11:45:42;;;;;;;5.75;2.95;;;;;;;21.34;47.25;99538.91;4984538;28;20640;-48
2022/10/19 11:48:34;;;;;;;4.88;2.70;;;;;;;21.98;45.96;99540.41;4973810;28;20062;-51
2022/10/19 11:51:30;;;;;;;5.78;2.83;;;;;;;22.86;44.03;99534.78;4971865;28;20050;-51
2022/10/19 11:54:29;;;;;;;5.32;3.50;;;;;;;20.66;47.83;99519.88;4971860;28;20423;-50
2022/10/19 11:57:30;;;;;;;4.93;3.05;;;;;;;21.39;47.19;99509.13;4970934;28;20126;-47
2022/10/19 12:00:18;;;;;;;5.40;2.60;;;;;;;21.54;46.25;99510.19;4973413;28;20511;-47
2022/10/19 12:03:15;;;;;;;5.22;3.10;;;;;;;20.88;48.12;99499.94;4974384;28;20173;-51
2022/10/19 12:06:30;;;;;;;4.40;2.78;;;;;;;21.76;46.25;99507.13;4973604;28;20035;-46
2022/10/19 12:09:44;;;;;;;5.38;3.42;;;;;;;21.96;45.41;99497.06;4974079;28;20129;-48
2022/10/19 12:12:40;;;;;;;5.40;3.13;;;;;;;21.16;47.85;99491.00;4970331;28;20276;-51
2022/10/19 12:15:37;;;;;;;4.97;3.35;;;;;;;21.08;48.17;99489.13;4985066;28;20058;-49
2022/10/19 12:18:40;;;;;;;5.28;3.72;;;;;;;21.60;47.08;99483.91;4992269;28;20042;-50
2022/10/19 12:21:30;;;;;;;5.72;3.55;;;;;;;22.35;46.09;99486.81;5001135;28;20068;-51
2022/10/19 12:24:18;;;;;;;5.10;3.20;;;;;;;21.77;47.22;99485.66;5003810;28;20034;-50
2022/10/19 12:27:04;;;;;;;6.22;3.67;;;;;;;20.87;49.24;99466.31;4995812;28;20414;-46
2022/10/19 12:29:49;;;;;;;4.25;2.90;;;;;;;20.92;49.59;99456.03;4978882;28;20064;-49
2022/10/19 12:33:14;;;;;;;5.75;3.63;;;;;;;21.11;49.16;99461.31;4992933;28;20133;-46
2022/10/19 12:36:21;;;;;;;5.78;3.08;;;;;;;21.59;47.84;99467.06;4988879;28;20034;-48
2022/10/19 12:39:44;;;;;;;6.00;4.03;;;;;;;20.16;50.72;99467.03;4989880;28;20089;-49
2022/10/19 12:42:56;;;;;;;6.13;3.53;;;;;;;21.03;49.23;99459.47;4971595;28;20043;-49
2022/10/19 12:45:59;;;;;;;5.20;3.38;;;;;;;20.66;49.58;99462.16;4972849;28;20513;-48
2022/10/19 12:48:44;;;;;;;4.80;3.40;;;;;;;21.47;48.17;99455.03;4950414;28;20693;-54
2022/10/19 12:51:44;;;;;;;5.45;3.03;;;;;;;22.56;45.50;99456.13;4965852;28;20478;-50
2022/10/19 12:54:31;;;;;;;5.07;3.33;;;;;;;22.63;45.21;99454.50;4965591;28;20054;-48
2022/10/19 12:57:24;;;;;;;3.95;2.83;;;;;;;22.68;44.93;99459.31;4952558;28;20035;-50
2022/10/19 13:00:18;;;;;;;4.95;3.20;;;;;;;23.66;42.98;99458.44;4962976;28;20043;-50
2022/10/19 13:03:20;;;;;;;10.05;3.67;;;;;;;22.05;45.96;99463.22;4963876;28;20076;-51
2022/10/19 13:06:25;;;;;;;9.18;3.88;;;;;;;21.35;46.93;99455.31;4964594;28;20403;-49
2022/10/19 13:09:21;;;;;;;5.30;3.50;;;;;;;20.53;49.30;99449.25;4907126;29;20148;-50